createdAt,value
2018-12-31T00:01:02.561Z,2.80
2018-12-31T00:03:32.430Z,2.80
2018-12-31T00:06:02.315Z,2.90
2018-12-31T00:08:32.068Z,2.90
2018-12-31T00:11:01.466Z,2.90
2018-12-31T00:13:30.887Z,2.90
2018-12-31T00:16:00.513Z,2.90
2018-12-31T00:18:30.957Z,2.90
2018-12-31T00:21:00.466Z,2.90
2018-12-31T00:23:29.765Z,2.90
2018-12-31T00:25:59.275Z,2.90
2018-12-31T00:28:28.861Z,2.90
2018-12-31T00:30:58.148Z,2.90
2018-12-31T00:33:28.506Z,2.90
2018-12-31T00:35:57.954Z,2.90
2018-12-31T00:38:27.367Z,2.90
2018-12-31T00:40:56.750Z,2.90
2018-12-31T00:43:26.123Z,2.90
2018-12-31T00:45:55.581Z,2.90
2018-12-31T00:48:25.035Z,2.90
2018-12-31T00:50:54.335Z,2.90
2018-12-31T00:53:26.309Z,2.90
2018-12-31T00:55:55.880Z,2.90
2018-12-31T00:58:25.330Z,3.00
2018-12-31T01:00:54.968Z,3.00
2018-12-31T01:03:24.531Z,3.00
2018-12-31T01:05:54.055Z,3.00
2018-12-31T01:08:23.677Z,3.00
2018-12-31T01:10:53.080Z,3.00
2018-12-31T01:13:22.812Z,2.90
2018-12-31T01:15:52.140Z,3.00
2018-12-31T01:18:21.547Z,2.90
2018-12-31T01:20:50.983Z,2.90
2018-12-31T01:23:20.638Z,2.90
2018-12-31T01:25:50.059Z,2.90
2018-12-31T01:28:19.632Z,2.90
2018-12-31T01:30:49.124Z,2.90
2018-12-31T01:33:18.683Z,2.90
2018-12-31T01:35:48.213Z,2.90
2018-12-31T01:38:17.593Z,2.90
2018-12-31T01:40:47.105Z,2.90
2018-12-31T01:43:16.429Z,2.90
2018-12-31T01:45:45.852Z,2.90
2018-12-31T01:48:15.249Z,2.80
2018-12-31T01:50:44.642Z,2.80
2018-12-31T01:53:14.037Z,2.80
2018-12-31T01:55:43.345Z,2.90
2018-12-31T01:58:12.651Z,2.80
2018-12-31T02:00:42.209Z,2.80
2018-12-31T02:03:11.558Z,2.80
2018-12-31T02:05:41.000Z,2.80
2018-12-31T02:08:10.365Z,2.80
2018-12-31T02:10:39.937Z,2.80
2018-12-31T02:13:09.357Z,2.80
2018-12-31T02:15:38.727Z,2.80
2018-12-31T02:18:08.103Z,2.80
2018-12-31T02:20:37.485Z,2.80
2018-12-31T02:23:06.902Z,2.80
2018-12-31T02:25:36.307Z,2.80
2018-12-31T02:28:05.675Z,2.80
2018-12-31T02:30:34.961Z,2.70
2018-12-31T02:33:04.410Z,2.70
2018-12-31T02:35:33.713Z,2.70
2018-12-31T02:38:03.070Z,2.70
2018-12-31T02:40:32.574Z,2.70
2018-12-31T02:43:02.021Z,2.70
2018-12-31T02:45:31.413Z,2.70
2018-12-31T02:48:00.747Z,2.70
2018-12-31T02:50:30.172Z,2.70
2018-12-31T02:52:59.543Z,2.70
2018-12-31T02:55:29.006Z,2.70
2018-12-31T02:57:58.228Z,2.60
2018-12-31T03:00:27.977Z,2.70
2018-12-31T03:02:57.420Z,2.60
2018-12-31T03:05:26.724Z,2.70
2018-12-31T03:07:56.058Z,2.70
2018-12-31T03:10:25.394Z,2.60
2018-12-31T03:12:54.720Z,2.60
2018-12-31T03:15:24.104Z,2.60
2018-12-31T03:17:53.618Z,2.60
2018-12-31T03:20:22.960Z,2.60
2018-12-31T03:22:52.345Z,2.60
2018-12-31T03:25:21.925Z,2.60
2018-12-31T03:27:51.652Z,2.60
2018-12-31T03:30:20.951Z,2.60
2018-12-31T03:32:50.323Z,2.60
2018-12-31T03:35:19.819Z,2.50
2018-12-31T03:37:49.288Z,2.50
2018-12-31T03:40:18.902Z,2.50
2018-12-31T03:42:48.330Z,2.50
2018-12-31T03:45:17.711Z,2.50
2018-12-31T03:47:47.084Z,2.50
2018-12-31T03:50:16.346Z,2.50
2018-12-31T03:52:45.772Z,2.50
2018-12-31T03:55:15.145Z,2.50
2018-12-31T03:57:44.420Z,2.50
2018-12-31T04:00:13.804Z,2.50
2018-12-31T04:02:43.293Z,2.40
2018-12-31T04:05:12.621Z,2.40
2018-12-31T04:07:41.939Z,2.40
2018-12-31T04:10:11.355Z,2.40
2018-12-31T04:12:40.747Z,2.40
2018-12-31T04:15:10.277Z,2.40
2018-12-31T04:17:39.584Z,2.40
2018-12-31T04:20:08.969Z,2.40
2018-12-31T04:22:38.392Z,2.40
2018-12-31T04:25:07.759Z,2.40
2018-12-31T04:27:37.901Z,2.30
2018-12-31T04:30:07.436Z,2.30
2018-12-31T04:32:36.766Z,2.40
2018-12-31T04:35:06.367Z,2.40
2018-12-31T04:37:35.832Z,2.40
2018-12-31T04:40:05.501Z,2.30
2018-12-31T04:42:34.978Z,2.30
2018-12-31T04:45:04.510Z,2.30
2018-12-31T04:47:34.036Z,2.30
2018-12-31T04:50:03.470Z,2.20
2018-12-31T04:52:32.842Z,2.20
2018-12-31T04:55:02.146Z,2.20
2018-12-31T04:57:31.508Z,2.20
2018-12-31T05:00:01.284Z,2.10
2018-12-31T05:02:30.598Z,2.10
2018-12-31T05:05:00.045Z,2.10
2018-12-31T05:07:29.491Z,2.10
2018-12-31T05:09:58.926Z,2.10
2018-12-31T05:12:28.437Z,2.10
2018-12-31T05:14:57.797Z,2.10
2018-12-31T05:17:27.462Z,2.10
2018-12-31T05:19:56.790Z,2.10
2018-12-31T05:22:26.063Z,2.10
2018-12-31T05:24:55.503Z,2.10
2018-12-31T05:27:24.830Z,2.10
2018-12-31T05:29:54.217Z,2.10
2018-12-31T05:32:23.635Z,2.10
2018-12-31T05:34:53.249Z,2.10
2018-12-31T05:37:22.617Z,2.20
2018-12-31T05:39:51.982Z,2.20
2018-12-31T05:42:21.332Z,2.20
2018-12-31T05:44:50.701Z,2.20
2018-12-31T05:47:20.221Z,2.30
2018-12-31T05:49:49.580Z,2.30
2018-12-31T05:52:19.027Z,2.30
2018-12-31T05:54:50.869Z,2.30
2018-12-31T05:57:20.409Z,2.30
2018-12-31T05:59:49.935Z,2.30
2018-12-31T06:02:19.505Z,2.30
2018-12-31T06:04:48.912Z,2.30
2018-12-31T06:07:18.192Z,2.30
2018-12-31T06:09:47.626Z,2.30
2018-12-31T06:12:16.942Z,2.40
2018-12-31T06:14:46.350Z,2.40
2018-12-31T06:17:15.731Z,2.40
2018-12-31T06:19:45.105Z,2.40
2018-12-31T06:22:14.491Z,2.40
2018-12-31T06:24:43.969Z,2.40
2018-12-31T06:27:13.347Z,2.40
2018-12-31T06:29:42.712Z,2.40
2018-12-31T06:32:12.087Z,2.40
2018-12-31T06:34:41.488Z,2.40
2018-12-31T06:37:11.015Z,2.40
2018-12-31T06:39:40.627Z,2.40
2018-12-31T06:42:10.026Z,2.40
2018-12-31T06:44:39.598Z,2.40
2018-12-31T06:47:09.186Z,2.40
2018-12-31T06:49:38.619Z,2.40
2018-12-31T06:52:08.021Z,2.50
2018-12-31T06:54:37.429Z,2.50
2018-12-31T06:57:06.758Z,2.50
2018-12-31T06:59:36.137Z,2.50
2018-12-31T07:02:05.710Z,2.50
2018-12-31T07:04:35.110Z,2.50
2018-12-31T07:07:04.535Z,2.50
2018-12-31T07:09:33.896Z,2.50
2018-12-31T07:12:03.294Z,2.50
2018-12-31T07:14:32.669Z,2.50
2018-12-31T07:17:02.287Z,2.50
2018-12-31T07:19:31.682Z,2.50
2018-12-31T07:22:01.149Z,2.50
2018-12-31T07:24:30.516Z,2.50
2018-12-31T07:27:00.028Z,2.50
2018-12-31T07:29:29.402Z,2.50
2018-12-31T07:31:58.764Z,2.40
2018-12-31T07:34:28.204Z,2.50
2018-12-31T07:36:57.659Z,2.50
2018-12-31T07:39:27.057Z,2.50
2018-12-31T07:41:56.310Z,2.50
2018-12-31T07:44:25.944Z,2.50
2018-12-31T07:46:55.283Z,2.50
2018-12-31T07:49:24.634Z,2.50
2018-12-31T07:51:53.964Z,2.50
2018-12-31T07:54:23.355Z,2.50
2018-12-31T07:56:52.712Z,2.50
2018-12-31T07:59:22.096Z,2.60
2018-12-31T08:01:51.846Z,2.60
2018-12-31T08:04:21.255Z,2.60
2018-12-31T08:06:50.669Z,2.60
2018-12-31T08:09:20.432Z,2.60
2018-12-31T08:11:49.932Z,2.60
2018-12-31T08:14:19.579Z,2.60
2018-12-31T08:16:48.922Z,2.70
2018-12-31T08:19:18.355Z,2.70
2018-12-31T08:21:47.923Z,2.70
2018-12-31T08:24:17.382Z,2.70
2018-12-31T08:26:46.781Z,2.80
2018-12-31T08:29:16.225Z,2.80
2018-12-31T08:31:45.621Z,2.80
2018-12-31T08:34:15.009Z,2.80
2018-12-31T08:36:44.372Z,2.80
2018-12-31T08:39:14.108Z,2.90
2018-12-31T08:41:43.621Z,2.90
2018-12-31T08:44:13.020Z,2.90
2018-12-31T08:46:42.327Z,2.90
2018-12-31T08:49:11.769Z,2.90
2018-12-31T08:51:41.358Z,3.00
2018-12-31T08:54:10.826Z,2.90
2018-12-31T08:56:40.135Z,3.00
2018-12-31T08:59:09.920Z,3.00
2018-12-31T09:01:39.122Z,2.90
2018-12-31T09:04:08.497Z,2.90
2018-12-31T09:06:37.951Z,2.90
2018-12-31T09:09:07.817Z,3.00
2018-12-31T09:11:37.326Z,2.90
2018-12-31T09:14:06.684Z,3.00
2018-12-31T09:16:35.999Z,3.00
2018-12-31T09:19:05.307Z,3.10
2018-12-31T09:21:34.619Z,3.10
2018-12-31T09:24:03.960Z,3.10
2018-12-31T09:26:33.405Z,3.20
2018-12-31T09:29:02.879Z,3.20
2018-12-31T09:31:32.330Z,3.20
2018-12-31T09:34:01.776Z,3.20
2018-12-31T09:36:31.188Z,3.20
2018-12-31T09:39:00.744Z,3.30
2018-12-31T09:41:30.202Z,3.30
2018-12-31T09:43:59.586Z,3.30
2018-12-31T09:46:29.107Z,3.30
2018-12-31T09:48:58.369Z,3.20
2018-12-31T09:51:27.685Z,3.20
2018-12-31T09:53:57.051Z,3.20
2018-12-31T09:56:26.409Z,3.20
2018-12-31T09:58:55.782Z,3.20
2018-12-31T10:01:25.151Z,3.20
2018-12-31T10:03:54.705Z,3.30
2018-12-31T10:06:24.074Z,3.30
2018-12-31T10:08:53.365Z,3.30
2018-12-31T10:11:22.887Z,3.30
2018-12-31T10:13:52.315Z,3.40
2018-12-31T10:16:21.640Z,3.40
2018-12-31T10:18:51.189Z,3.40
2018-12-31T10:21:20.598Z,3.40
2018-12-31T10:23:50.023Z,3.40
2018-12-31T10:26:19.434Z,3.40
2018-12-31T10:28:49.872Z,3.40
2018-12-31T10:31:19.253Z,3.40
2018-12-31T10:33:48.788Z,3.40
2018-12-31T10:36:18.140Z,3.40
2018-12-31T10:38:51.157Z,3.40
2018-12-31T10:41:18.905Z,3.40
2018-12-31T10:43:48.426Z,3.40
2018-12-31T10:46:17.764Z,3.40
2018-12-31T10:48:47.200Z,3.40
2018-12-31T10:51:16.933Z,3.40
2018-12-31T10:53:46.333Z,3.40
2018-12-31T10:56:15.813Z,3.50
2018-12-31T10:58:45.287Z,3.40
2018-12-31T11:01:14.609Z,3.50
2018-12-31T11:03:44.014Z,3.50
2018-12-31T11:06:13.423Z,3.60
2018-12-31T11:08:42.694Z,3.50
2018-12-31T11:11:12.183Z,3.60
2018-12-31T11:13:41.639Z,3.60
2018-12-31T11:16:11.441Z,3.60
2018-12-31T11:18:40.760Z,3.60
2018-12-31T11:21:10.164Z,3.50
2018-12-31T11:23:39.500Z,3.40
2018-12-31T11:26:08.824Z,3.30
2018-12-31T11:28:38.400Z,3.30
2018-12-31T11:31:07.856Z,3.30
2018-12-31T11:33:37.223Z,3.30
2018-12-31T11:36:06.608Z,3.30
2018-12-31T11:38:36.020Z,3.40
2018-12-31T11:41:05.585Z,3.40
2018-12-31T11:43:35.025Z,3.40
2018-12-31T11:46:04.620Z,3.40
2018-12-31T11:48:33.980Z,3.40
2018-12-31T11:51:03.575Z,3.40
2018-12-31T11:53:33.001Z,3.40
2018-12-31T11:56:02.482Z,3.40
2018-12-31T11:58:31.724Z,3.40
2018-12-31T12:01:01.113Z,3.40
2018-12-31T12:03:30.706Z,3.40
2018-12-31T12:06:00.317Z,3.40
2018-12-31T12:08:29.568Z,3.50
2018-12-31T12:10:59.246Z,3.50
2018-12-31T12:13:28.945Z,3.50
2018-12-31T12:15:58.718Z,3.50
2018-12-31T12:18:28.110Z,3.50
2018-12-31T12:20:57.500Z,3.50
2018-12-31T12:23:26.936Z,3.50
2018-12-31T12:25:56.612Z,3.50
2018-12-31T12:28:26.030Z,3.40
2018-12-31T12:30:55.616Z,3.40
2018-12-31T12:33:25.237Z,3.40
2018-12-31T12:35:54.940Z,3.40
2018-12-31T12:38:24.612Z,3.40
2018-12-31T12:40:54.101Z,3.40
2018-12-31T12:43:23.493Z,3.50
2018-12-31T12:45:52.919Z,3.60
2018-12-31T12:48:22.315Z,3.50
2018-12-31T12:50:51.851Z,3.40
2018-12-31T12:53:21.499Z,3.40
2018-12-31T12:55:51.295Z,3.40
2018-12-31T12:58:20.801Z,3.30
2018-12-31T13:00:50.504Z,3.40
2018-12-31T13:03:19.879Z,3.30
2018-12-31T13:05:49.819Z,3.40
2018-12-31T13:08:19.317Z,3.40
2018-12-31T13:10:48.870Z,3.30
2018-12-31T13:13:18.737Z,3.40
2018-12-31T13:15:48.349Z,3.40
2018-12-31T13:18:17.770Z,3.30
2018-12-31T13:20:47.131Z,3.20
2018-12-31T13:23:16.705Z,3.30
2018-12-31T13:25:46.097Z,3.30
2018-12-31T13:28:15.668Z,3.30
2018-12-31T13:30:45.048Z,3.30
2018-12-31T13:33:14.793Z,3.30
2018-12-31T13:35:44.300Z,3.20
2018-12-31T13:38:14.114Z,3.30
2018-12-31T13:40:43.594Z,3.30
2018-12-31T13:43:13.959Z,3.30
2018-12-31T13:45:43.370Z,3.30
2018-12-31T13:48:12.853Z,3.30
2018-12-31T13:50:42.537Z,3.30
2018-12-31T13:53:11.968Z,3.20
2018-12-31T13:55:41.341Z,3.30
2018-12-31T13:58:10.802Z,3.30
2018-12-31T14:00:40.395Z,3.20
2018-12-31T14:03:16.929Z,3.20
2018-12-31T14:05:40.929Z,3.20
2018-12-31T14:08:10.379Z,3.20
2018-12-31T14:10:40.178Z,3.20
2018-12-31T14:13:09.537Z,3.10
2018-12-31T14:15:38.954Z,3.10
2018-12-31T14:18:08.421Z,3.20
2018-12-31T14:20:37.947Z,3.20
2018-12-31T14:23:07.431Z,3.20
2018-12-31T14:25:36.970Z,3.20
2018-12-31T14:28:06.451Z,3.20
2018-12-31T14:30:35.931Z,3.20
2018-12-31T14:33:05.398Z,3.20
2018-12-31T14:35:35.063Z,3.20
2018-12-31T14:38:04.716Z,3.20
2018-12-31T14:40:34.135Z,3.30
2018-12-31T14:43:03.844Z,3.20
2018-12-31T14:45:33.236Z,3.20
2018-12-31T14:48:02.912Z,3.20
2018-12-31T14:50:32.340Z,3.20
2018-12-31T14:53:01.806Z,3.20
2018-12-31T14:55:31.312Z,3.20
2018-12-31T14:58:00.706Z,3.20
2018-12-31T15:00:30.132Z,3.20
2018-12-31T15:02:59.647Z,3.20
2018-12-31T15:05:29.162Z,3.20
2018-12-31T15:07:58.799Z,3.20
2018-12-31T15:10:28.439Z,3.20
2018-12-31T15:12:58.005Z,3.20
2018-12-31T15:15:27.412Z,3.20
2018-12-31T15:17:56.937Z,3.20
2018-12-31T15:20:26.485Z,3.20
2018-12-31T15:22:56.033Z,3.10
2018-12-31T15:25:25.471Z,3.10
2018-12-31T15:27:54.847Z,3.20
2018-12-31T15:30:24.190Z,3.20
2018-12-31T15:32:53.594Z,3.10
2018-12-31T15:35:23.152Z,3.10
2018-12-31T15:37:52.671Z,3.10
2018-12-31T15:40:22.100Z,3.10
2018-12-31T15:42:51.462Z,3.10
2018-12-31T15:45:20.880Z,3.00
2018-12-31T15:47:50.618Z,3.00
2018-12-31T15:50:20.201Z,3.00
2018-12-31T15:52:49.824Z,3.00
2018-12-31T15:55:19.281Z,2.90
2018-12-31T15:57:48.837Z,2.90
2018-12-31T16:00:18.460Z,2.90
2018-12-31T16:02:47.919Z,2.90
2018-12-31T16:05:17.324Z,2.90
2018-12-31T16:07:47.000Z,2.90
2018-12-31T16:10:16.465Z,2.90
2018-12-31T16:12:46.120Z,2.90
2018-12-31T16:15:17.388Z,2.80
2018-12-31T16:17:46.998Z,2.80
2018-12-31T16:20:16.496Z,2.80
2018-12-31T16:22:46.029Z,2.80
2018-12-31T16:25:15.803Z,2.80
2018-12-31T16:27:45.192Z,2.80
2018-12-31T16:30:14.894Z,2.80
2018-12-31T16:32:44.454Z,2.80
2018-12-31T16:35:13.942Z,2.80
2018-12-31T16:37:43.515Z,2.90
2018-12-31T16:40:13.136Z,2.90
2018-12-31T16:42:42.695Z,2.80
2018-12-31T16:45:12.241Z,2.90
2018-12-31T16:47:41.735Z,2.90
2018-12-31T16:50:11.328Z,2.80
2018-12-31T16:52:41.075Z,2.80
2018-12-31T16:55:10.591Z,2.80
2018-12-31T16:57:39.914Z,2.80
2018-12-31T17:00:09.931Z,2.90
2018-12-31T17:02:39.746Z,2.80
2018-12-31T17:05:09.203Z,2.90
2018-12-31T17:07:38.735Z,2.80
2018-12-31T17:10:09.898Z,2.90
2018-12-31T17:12:39.608Z,2.90
2018-12-31T17:15:08.928Z,2.90
2018-12-31T17:17:38.255Z,2.90
2018-12-31T17:20:07.994Z,2.80
2018-12-31T17:22:37.406Z,2.90
2018-12-31T17:25:07.083Z,2.90
2018-12-31T17:27:36.430Z,2.80
2018-12-31T17:30:06.315Z,2.80
2018-12-31T17:32:35.593Z,2.80
2018-12-31T17:35:05.371Z,2.80
2018-12-31T17:37:35.026Z,2.80
2018-12-31T17:40:04.728Z,2.80
2018-12-31T17:42:34.059Z,2.80
2018-12-31T17:45:03.399Z,2.80
2018-12-31T17:47:32.690Z,2.80
2018-12-31T17:50:02.295Z,2.70
2018-12-31T17:52:32.743Z,2.70
2018-12-31T17:55:02.069Z,2.70
2018-12-31T17:57:31.443Z,2.60
2018-12-31T18:00:00.795Z,2.60
2018-12-31T18:02:30.171Z,2.60
2018-12-31T18:04:59.546Z,2.60
2018-12-31T18:07:28.900Z,2.60
2018-12-31T18:09:59.111Z,2.50
2018-12-31T18:12:28.403Z,2.50
2018-12-31T18:14:57.635Z,2.50
2018-12-31T18:17:26.903Z,2.40
2018-12-31T18:19:56.231Z,2.40
2018-12-31T18:22:25.631Z,2.40
2018-12-31T18:24:55.040Z,2.40
2018-12-31T18:27:24.302Z,2.40
2018-12-31T18:29:53.557Z,2.40
2018-12-31T18:32:23.012Z,2.30
2018-12-31T18:34:53.567Z,2.30
2018-12-31T18:37:22.944Z,2.30
2018-12-31T18:39:58.024Z,2.30
2018-12-31T18:42:23.120Z,2.30
2018-12-31T18:44:52.635Z,2.20
2018-12-31T18:47:21.902Z,2.20
2018-12-31T18:49:51.159Z,2.20
2018-12-31T18:52:20.559Z,2.20
2018-12-31T18:54:49.908Z,2.20
2018-12-31T18:57:19.218Z,2.20
2018-12-31T18:59:48.515Z,2.20
2018-12-31T19:02:17.872Z,2.20
2018-12-31T19:04:47.204Z,2.20
2018-12-31T19:07:16.558Z,2.20
2018-12-31T19:09:46.950Z,2.20
2018-12-31T19:12:16.238Z,2.20
2018-12-31T19:14:45.808Z,2.20
2018-12-31T19:17:15.266Z,2.20
2018-12-31T19:19:44.531Z,2.10
2018-12-31T19:22:13.878Z,2.10
2018-12-31T19:24:43.108Z,2.10
2018-12-31T19:27:12.442Z,2.10
2018-12-31T19:29:41.865Z,2.10
2018-12-31T19:32:11.160Z,2.10
2018-12-31T19:34:40.363Z,2.10
2018-12-31T19:37:09.559Z,2.10
2018-12-31T19:39:38.863Z,2.10
2018-12-31T19:42:08.128Z,2.10
2018-12-31T19:44:37.408Z,2.00
2018-12-31T19:47:06.898Z,2.00
2018-12-31T19:49:36.248Z,2.00
2018-12-31T19:52:05.574Z,2.10
2018-12-31T19:54:34.867Z,2.10
2018-12-31T19:57:04.279Z,2.10
2018-12-31T19:59:35.631Z,2.10
2018-12-31T20:02:04.895Z,2.10
2018-12-31T20:04:34.559Z,2.00
2018-12-31T20:07:03.833Z,2.00
2018-12-31T20:09:33.191Z,2.00
2018-12-31T20:12:02.558Z,2.00
2018-12-31T20:14:31.864Z,2.00
2018-12-31T20:17:01.433Z,2.00
2018-12-31T20:19:30.719Z,2.00
2018-12-31T20:22:00.060Z,2.00
2018-12-31T20:24:29.415Z,1.90
2018-12-31T20:26:58.823Z,1.90
2018-12-31T20:29:28.168Z,1.90
2018-12-31T20:31:57.553Z,1.90
2018-12-31T20:34:27.116Z,1.90
2018-12-31T20:36:56.436Z,1.90
2018-12-31T20:39:25.728Z,1.90
2018-12-31T20:41:55.026Z,1.90
2018-12-31T20:44:24.878Z,1.90
2018-12-31T20:46:56.269Z,1.90
2018-12-31T20:49:25.856Z,1.90
2018-12-31T20:51:55.143Z,1.80
2018-12-31T20:54:24.502Z,1.80
2018-12-31T20:56:54.035Z,1.80
2018-12-31T20:59:23.416Z,1.80
2018-12-31T21:01:53.667Z,1.80
2018-12-31T21:04:23.098Z,1.90
2018-12-31T21:06:53.592Z,1.80
2018-12-31T21:09:23.199Z,1.80
2018-12-31T21:11:52.499Z,1.90
2018-12-31T21:14:22.209Z,1.80
2018-12-31T21:16:51.571Z,1.90
2018-12-31T21:19:20.945Z,1.90
2018-12-31T21:21:50.555Z,1.90
2018-12-31T21:24:19.926Z,1.90
2018-12-31T21:26:49.243Z,1.90
2018-12-31T21:29:18.528Z,1.90
2018-12-31T21:31:47.804Z,1.90
2018-12-31T21:34:17.430Z,1.80
2018-12-31T21:36:46.843Z,1.80
2018-12-31T21:39:16.237Z,1.80
2018-12-31T21:41:45.565Z,1.80
2018-12-31T21:44:15.609Z,1.80
2018-12-31T21:46:46.955Z,1.80
2018-12-31T21:49:16.294Z,1.80
2018-12-31T21:51:45.554Z,1.80
2018-12-31T21:54:14.843Z,1.70
2018-12-31T21:56:44.186Z,1.70
2018-12-31T21:59:13.851Z,1.80
2018-12-31T22:01:43.133Z,1.70
2018-12-31T22:04:12.396Z,1.70
2018-12-31T22:06:41.683Z,1.70
2018-12-31T22:09:11.018Z,1.70
2018-12-31T22:11:40.308Z,1.70
2018-12-31T22:14:09.673Z,1.70
2018-12-31T22:16:39.037Z,1.70
2018-12-31T22:19:08.484Z,1.80
2018-12-31T22:21:37.868Z,1.80
2018-12-31T22:24:07.487Z,1.80
2018-12-31T22:26:36.824Z,1.80
2018-12-31T22:29:06.103Z,1.70
2018-12-31T22:31:35.414Z,1.70
2018-12-31T22:34:04.802Z,1.70
2018-12-31T22:36:35.957Z,1.70
2018-12-31T22:39:07.039Z,1.70
2018-12-31T22:41:36.370Z,1.60
2018-12-31T22:44:05.660Z,1.60
2018-12-31T22:46:34.947Z,1.60
2018-12-31T22:49:04.457Z,1.50
2018-12-31T22:51:33.718Z,1.50
2018-12-31T22:54:03.015Z,1.50
2018-12-31T22:56:32.359Z,1.50
2018-12-31T22:59:01.712Z,1.40
2018-12-31T23:01:31.347Z,1.40
2018-12-31T23:04:00.675Z,1.40
2018-12-31T23:06:30.060Z,1.40
2018-12-31T23:09:01.483Z,1.40
2018-12-31T23:11:30.763Z,1.30
2018-12-31T23:14:00.113Z,1.40
2018-12-31T23:16:29.563Z,1.40
2018-12-31T23:18:58.950Z,1.40
2018-12-31T23:21:28.344Z,1.40
2018-12-31T23:23:57.775Z,1.50
2018-12-31T23:26:27.067Z,1.50
2018-12-31T23:28:56.380Z,1.50
2018-12-31T23:31:25.648Z,1.50
2018-12-31T23:33:55.332Z,1.50
2018-12-31T23:36:24.607Z,1.40
2018-12-31T23:38:54.231Z,1.40
2018-12-31T23:41:23.511Z,1.40
2018-12-31T23:43:52.818Z,1.40
2018-12-31T23:46:22.160Z,1.40
2018-12-31T23:48:51.425Z,1.30
2018-12-31T23:51:20.876Z,1.20
2018-12-31T23:53:51.258Z,1.20
2018-12-31T23:59:16.693Z,1.10
